createdAt,value
2022-11-21T00:02:41.932Z,135.90
2022-11-21T00:05:55.576Z,143.80
2022-11-21T00:09:07.271Z,148.35
2022-11-21T00:12:18.967Z,141.83
2022-11-21T00:15:32.222Z,134.85
2022-11-21T00:18:44.630Z,140.88
2022-11-21T00:21:56.509Z,139.58
2022-11-21T00:25:08.667Z,139.98
2022-11-21T00:28:20.269Z,138.50
2022-11-21T00:31:32.306Z,132.88
2022-11-21T00:34:44.018Z,131.10
2022-11-21T00:37:55.640Z,138.25
2022-11-21T00:41:07.351Z,147.93
2022-11-21T00:44:18.943Z,138.40
2022-11-21T00:47:30.750Z,138.70
2022-11-21T00:50:42.604Z,138.68
2022-11-21T00:53:54.328Z,138.98
2022-11-21T00:57:06.123Z,138.50
2022-11-21T01:00:21.625Z,142.13
2022-11-21T01:03:33.260Z,136.90
2022-11-21T01:06:46.505Z,140.18
2022-11-21T01:09:58.159Z,143.03
2022-11-21T01:13:09.893Z,139.88
2022-11-21T01:16:25.973Z,144.35
2022-11-21T01:19:37.954Z,135.17
2022-11-21T01:22:49.544Z,144.05
2022-11-21T01:26:03.186Z,136.15
2022-11-21T01:29:15.002Z,145.95
2022-11-21T01:32:26.663Z,140.43
2022-11-21T01:35:38.355Z,135.13
2022-11-21T01:38:52.453Z,143.53
2022-11-21T01:42:03.989Z,128.18
2022-11-21T01:45:56.147Z,132.75
2022-11-21T01:49:12.404Z,143.55
2022-11-21T01:52:27.952Z,135.15
2022-11-21T01:55:41.097Z,121.93
2022-11-21T01:58:55.955Z,128.75
2022-11-21T02:02:11.752Z,123.05
2022-11-21T02:05:27.840Z,122.35
2022-11-21T02:08:39.837Z,119.68
2022-11-21T02:11:56.801Z,112.95
2022-11-21T02:18:19.139Z,128.45
2022-11-21T02:21:40.780Z,125.15
2022-11-21T02:25:01.153Z,128.73
2022-11-21T02:28:16.012Z,129.28
2022-11-21T02:31:27.916Z,128.95
2022-11-21T02:34:39.703Z,124.28
2022-11-21T02:37:55.519Z,124.93
2022-11-21T02:41:16.443Z,120.50
2022-11-21T02:44:33.843Z,118.73
2022-11-21T02:47:47.582Z,117.28
2022-11-21T02:50:59.386Z,114.65
2022-11-21T02:54:11.487Z,111.50
2022-11-21T02:57:23.276Z,118.80
2022-11-21T03:00:35.087Z,121.18
2022-11-21T03:03:47.180Z,119.23
2022-11-21T03:06:58.980Z,116.70
2022-11-21T03:10:12.745Z,110.38
2022-11-21T03:13:24.630Z,111.03
2022-11-21T03:16:36.338Z,112.38
2022-11-21T03:19:48.035Z,103.45
2022-11-21T03:22:59.931Z,104.70
2022-11-21T03:26:11.596Z,105.95
2022-11-21T03:29:23.232Z,118.68
2022-11-21T03:32:34.836Z,122.38
2022-11-21T03:35:46.514Z,115.55
2022-11-21T03:38:58.145Z,107.25
2022-11-21T03:42:10.102Z,119.90
2022-11-21T03:45:22.285Z,126.50
2022-11-21T03:48:33.907Z,136.08
2022-11-21T03:51:46.897Z,161.35
2022-11-21T03:54:58.604Z,149.70
2022-11-21T03:58:10.494Z,133.85
2022-11-21T04:01:22.884Z,146.45
2022-11-21T04:04:36.157Z,128.15
2022-11-21T04:07:47.970Z,145.15
2022-11-21T04:11:00.770Z,132.03
2022-11-21T04:14:12.558Z,122.03
2022-11-21T04:17:24.250Z,118.08
2022-11-21T04:20:35.944Z,111.25
2022-11-21T04:23:47.505Z,117.60
2022-11-21T04:26:59.610Z,113.20
2022-11-21T04:30:13.699Z,111.30
2022-11-21T04:33:25.787Z,112.93
2022-11-21T04:36:37.788Z,114.45
2022-11-21T04:39:49.657Z,118.23
2022-11-21T04:43:01.595Z,112.40
2022-11-21T04:46:13.336Z,122.83
2022-11-21T04:49:25.120Z,134.35
2022-11-21T04:52:36.908Z,147.85
2022-11-21T04:55:48.687Z,137.90
2022-11-21T04:59:00.676Z,130.30
2022-11-21T05:02:12.266Z,126.58
2022-11-21T05:05:24.077Z,133.23
2022-11-21T05:08:37.024Z,125.65
2022-11-21T05:12:03.669Z,135.20
2022-11-21T05:15:19.259Z,117.13
2022-11-21T05:18:30.306Z,118.00
2022-11-21T05:21:41.895Z,127.20
2022-11-21T05:24:53.605Z,122.70
2022-11-21T05:28:05.287Z,124.45
2022-11-21T05:31:17.112Z,118.10
2022-11-21T05:34:29.150Z,111.28
2022-11-21T05:37:41.168Z,126.13
2022-11-21T05:40:53.044Z,124.65
2022-11-21T05:44:05.014Z,125.50
2022-11-21T05:47:17.208Z,143.43
2022-11-21T05:50:29.111Z,137.40
2022-11-21T05:53:41.522Z,156.65
2022-11-21T05:56:53.566Z,135.30
2022-11-21T06:00:05.524Z,135.40
2022-11-21T06:03:34.515Z,135.85
2022-11-21T06:06:46.167Z,129.60
2022-11-21T06:09:57.917Z,137.50
2022-11-21T06:13:14.372Z,139.50
2022-11-21T06:16:27.045Z,132.05
2022-11-21T06:19:38.942Z,134.60
2022-11-21T06:22:50.534Z,128.90
2022-11-21T06:26:06.423Z,139.65
2022-11-21T06:29:22.283Z,142.50
2022-11-21T06:32:34.068Z,124.20
2022-11-21T06:35:46.243Z,133.63
2022-11-21T06:38:59.538Z,119.20
2022-11-21T06:42:12.008Z,141.60
2022-11-21T06:45:23.839Z,131.68
2022-11-21T06:48:36.063Z,134.50
2022-11-21T06:51:47.753Z,130.30
2022-11-21T06:54:59.479Z,135.70
2022-11-21T06:58:11.291Z,136.00
2022-11-21T07:01:23.466Z,135.03
2022-11-21T07:04:35.648Z,132.40
2022-11-21T07:07:47.552Z,166.85
2022-11-21T07:11:23.544Z,174.25
2022-11-21T07:14:13.702Z,183.20
2022-11-21T07:17:25.466Z,148.83
2022-11-21T07:20:38.368Z,137.88
2022-11-21T07:23:50.213Z,141.03
2022-11-21T07:27:03.365Z,134.70
2022-11-21T07:30:18.847Z,131.60
2022-11-21T07:33:30.779Z,161.45
2022-11-21T07:36:42.731Z,144.65
2022-11-21T07:39:54.504Z,143.05
2022-11-21T07:43:11.205Z,143.53
2022-11-21T07:49:33.549Z,149.13
2022-11-21T07:52:47.010Z,153.40
2022-11-21T07:55:58.695Z,146.58
2022-11-21T07:59:10.660Z,141.78
2022-11-21T08:02:27.175Z,146.65
2022-11-21T08:05:41.794Z,141.40
2022-11-21T08:08:55.682Z,132.15
2022-11-21T08:12:07.569Z,137.68
2022-11-21T08:15:20.294Z,136.28
2022-11-21T08:18:32.023Z,119.65
2022-11-21T08:21:43.779Z,181.65
2022-11-21T08:24:55.590Z,149.78
2022-11-21T08:28:07.325Z,141.53
2022-11-21T08:31:20.202Z,145.38
2022-11-21T08:34:32.023Z,145.05
2022-11-21T08:37:43.683Z,124.95
2022-11-21T08:40:59.594Z,129.03
2022-11-21T08:44:14.368Z,125.73
2022-11-21T08:47:26.510Z,144.63
2022-11-21T08:50:46.871Z,158.13
2022-11-21T08:53:58.558Z,124.15
2022-11-21T08:57:10.408Z,134.40
2022-11-21T09:00:34.012Z,114.53
2022-11-21T09:03:45.848Z,121.58
2022-11-21T09:06:57.772Z,108.38
2022-11-21T09:10:13.254Z,113.08
2022-11-21T09:13:25.204Z,113.53
2022-11-21T09:16:52.061Z,122.03
2022-11-21T09:20:04.000Z,126.80
2022-11-21T09:23:18.101Z,109.10
2022-11-21T09:26:29.902Z,100.25
2022-11-21T09:29:42.495Z,97.80
2022-11-21T09:32:54.203Z,106.90
2022-11-21T09:36:07.502Z,102.30
2022-11-21T09:39:21.143Z,99.38
2022-11-21T09:43:07.029Z,99.70
2022-11-21T09:46:23.652Z,106.80
2022-11-21T09:49:38.038Z,107.63
2022-11-21T09:52:54.352Z,109.70
2022-11-21T09:56:10.665Z,102.10
2022-11-21T09:59:37.261Z,106.35
2022-11-21T10:02:49.128Z,104.20
2022-11-21T10:06:05.855Z,103.95
2022-11-21T10:09:23.724Z,101.35
2022-11-21T10:12:41.576Z,95.70
2022-11-21T10:16:03.235Z,98.40
2022-11-21T10:19:44.545Z,96.73
2022-11-21T10:23:22.161Z,108.43
2022-11-21T10:26:40.744Z,101.48
2022-11-21T10:29:59.117Z,252.83
2022-11-21T10:33:15.950Z,124.40
2022-11-21T10:39:49.328Z,93.00
2022-11-21T10:43:08.445Z,108.17
2022-11-21T10:46:20.211Z,94.80
2022-11-21T10:49:36.871Z,95.43
2022-11-21T10:52:53.968Z,85.75
2022-11-21T10:56:13.678Z,85.85
2022-11-21T10:59:32.017Z,95.03
2022-11-21T11:02:44.309Z,95.75
2022-11-21T11:06:03.448Z,92.58
2022-11-21T11:09:30.869Z,83.08
2022-11-21T11:13:01.589Z,93.68
2022-11-21T11:16:24.161Z,86.83
2022-11-21T11:19:40.345Z,86.90
2022-11-21T11:22:50.359Z,86.58
2022-11-21T11:26:05.300Z,82.85
2022-11-21T11:29:22.496Z,84.58
2022-11-21T11:35:45.002Z,87.50
2022-11-21T11:39:02.101Z,85.53
2022-11-21T11:43:03.663Z,89.93
2022-11-21T11:46:52.444Z,88.00
2022-11-21T11:50:18.068Z,90.58
2022-11-21T11:53:35.827Z,91.50
2022-11-21T11:56:51.386Z,135.83
2022-11-21T12:00:11.557Z,105.23
2022-11-21T12:03:29.237Z,88.28
2022-11-21T12:10:08.326Z,83.25
2022-11-21T12:13:25.104Z,84.35
2022-11-21T12:16:37.941Z,89.28
2022-11-21T12:19:50.038Z,86.33
2022-11-21T12:23:03.242Z,91.13
2022-11-21T12:26:38.303Z,85.90
2022-11-21T12:30:05.535Z,85.90
2022-11-21T12:33:24.511Z,85.18
2022-11-21T12:36:44.640Z,85.13
2022-11-21T12:40:23.639Z,86.35
2022-11-21T12:43:43.807Z,85.43
2022-11-21T12:47:20.589Z,82.60
2022-11-21T12:50:56.554Z,79.98
2022-11-21T12:54:44.624Z,80.05
2022-11-21T12:58:33.772Z,88.20
2022-11-21T13:01:55.833Z,87.17
2022-11-21T13:05:25.432Z,84.67
2022-11-21T13:08:42.498Z,86.05
2022-11-21T13:12:19.712Z,85.53
2022-11-21T13:15:38.496Z,87.72
2022-11-21T13:18:55.635Z,86.83
2022-11-21T13:22:07.314Z,79.65
2022-11-21T13:25:52.804Z,85.50
2022-11-21T13:29:18.688Z,89.55
2022-11-21T13:32:50.646Z,90.68
2022-11-21T13:36:05.620Z,92.68
2022-11-21T13:39:37.157Z,81.15
2022-11-21T13:43:38.030Z,92.05
2022-11-21T13:47:13.898Z,82.25
2022-11-21T13:50:52.162Z,87.43
2022-11-21T13:54:50.135Z,90.55
2022-11-21T13:58:27.238Z,82.25
2022-11-21T14:02:35.672Z,90.30
2022-11-21T14:06:44.823Z,90.73
2022-11-21T14:14:37.639Z,99.13
2022-11-21T14:18:24.572Z,82.25
2022-11-21T14:21:52.268Z,86.53
2022-11-21T14:25:30.861Z,84.25
2022-11-21T14:32:12.822Z,75.78
2022-11-21T14:35:34.883Z,84.83
2022-11-21T14:39:14.001Z,82.80
2022-11-21T14:42:09.945Z,79.40
2022-11-21T14:45:29.038Z,76.23
2022-11-21T14:48:42.483Z,78.30
2022-11-21T14:51:58.167Z,83.50
2022-11-21T14:55:30.734Z,87.50
2022-11-21T14:58:52.392Z,84.40
2022-11-21T15:02:08.099Z,87.90
2022-11-21T15:06:01.457Z,86.73
2022-11-21T15:12:12.443Z,92.90
2022-11-21T15:15:34.908Z,89.15
2022-11-21T15:18:48.608Z,87.35
2022-11-21T15:22:04.691Z,87.15
2022-11-21T15:25:24.368Z,88.95
2022-11-21T15:28:38.660Z,88.73
2022-11-21T15:31:51.179Z,90.22
2022-11-21T15:35:03.390Z,83.35
2022-11-21T15:38:28.652Z,79.78
2022-11-21T15:41:42.132Z,84.95
2022-11-21T15:45:08.152Z,87.23
2022-11-21T15:48:20.463Z,98.30
2022-11-21T15:51:59.993Z,90.20
2022-11-21T15:54:51.683Z,85.15
2022-11-21T15:58:04.149Z,80.10
2022-11-21T16:01:22.989Z,88.90
2022-11-21T16:04:36.039Z,94.03
2022-11-21T16:07:48.543Z,85.28
2022-11-21T16:11:01.010Z,78.85
2022-11-21T16:14:17.169Z,81.65
2022-11-21T16:17:29.349Z,86.37
2022-11-21T16:20:41.602Z,89.93
2022-11-21T16:23:53.786Z,82.17
2022-11-21T16:27:05.654Z,85.63
2022-11-21T16:30:19.837Z,94.98
2022-11-21T16:33:32.508Z,86.63
2022-11-21T16:36:44.380Z,100.05
2022-11-21T16:39:56.167Z,85.05
2022-11-21T16:43:15.483Z,78.08
2022-11-21T16:46:29.129Z,86.93
2022-11-21T16:49:43.532Z,91.80
2022-11-21T16:52:55.316Z,92.53
2022-11-21T16:59:50.099Z,84.48
2022-11-21T17:03:01.931Z,83.88
2022-11-21T17:06:14.757Z,84.95
2022-11-21T17:09:26.677Z,82.17
2022-11-21T17:12:42.707Z,89.30
2022-11-21T17:15:54.513Z,80.48
2022-11-21T17:19:08.511Z,79.60
2022-11-21T17:22:24.584Z,84.73
2022-11-21T17:25:34.743Z,89.30
2022-11-21T17:28:47.816Z,78.85
2022-11-21T17:31:59.784Z,72.13
2022-11-21T17:35:13.468Z,78.58
2022-11-21T17:38:25.543Z,81.47
2022-11-21T17:41:38.259Z,82.33
2022-11-21T17:44:50.090Z,79.93
2022-11-21T17:48:01.944Z,80.58
2022-11-21T17:51:16.928Z,75.45
2022-11-21T17:54:29.053Z,73.33
2022-11-21T17:57:41.267Z,85.00
2022-11-21T18:00:53.137Z,80.03
2022-11-21T18:04:14.692Z,76.23
2022-11-21T18:07:22.717Z,74.38
2022-11-21T18:10:43.442Z,78.40
2022-11-21T18:13:48.646Z,83.05
2022-11-21T18:17:01.224Z,83.42
2022-11-21T18:20:15.523Z,70.50
2022-11-21T18:23:27.218Z,67.50
2022-11-21T18:26:41.982Z,70.85
2022-11-21T18:29:53.625Z,75.95
2022-11-21T18:33:05.444Z,73.50
2022-11-21T18:36:18.446Z,70.18
2022-11-21T18:39:30.539Z,69.18
2022-11-21T18:42:42.546Z,82.83
2022-11-21T18:45:54.198Z,88.38
2022-11-21T18:49:08.057Z,72.75
2022-11-21T18:52:20.452Z,65.05
2022-11-21T18:55:32.303Z,70.65
2022-11-21T18:58:47.046Z,80.95
2022-11-21T19:02:01.912Z,78.63
2022-11-21T19:05:20.208Z,75.98
2022-11-21T19:08:29.762Z,69.28
2022-11-21T19:11:41.947Z,69.03
2022-11-21T19:14:55.583Z,75.40
2022-11-21T19:18:07.705Z,79.25
2022-11-21T19:21:21.357Z,76.60
2022-11-21T19:24:33.369Z,79.33
2022-11-21T19:27:45.173Z,69.90
2022-11-21T19:30:57.036Z,78.50
2022-11-21T19:34:09.200Z,71.05
2022-11-21T19:37:21.046Z,74.40
2022-11-21T19:40:35.805Z,70.15
2022-11-21T19:43:49.157Z,67.40
2022-11-21T19:47:01.027Z,74.83
2022-11-21T19:50:15.515Z,74.08
2022-11-21T19:53:27.410Z,77.98
2022-11-21T19:56:39.665Z,72.75
2022-11-21T19:59:52.059Z,73.58
2022-11-21T20:03:03.875Z,79.50
2022-11-21T20:06:20.640Z,74.35
2022-11-21T20:09:34.750Z,88.88
2022-11-21T20:12:46.600Z,79.40
2022-11-21T20:15:58.508Z,72.08
2022-11-21T20:19:14.710Z,73.63
2022-11-21T20:22:28.774Z,81.05
2022-11-21T20:25:40.737Z,82.80
2022-11-21T20:28:55.634Z,75.55
2022-11-21T20:32:07.606Z,80.90
2022-11-21T20:35:19.620Z,79.45
2022-11-21T20:38:31.321Z,91.68
2022-11-21T20:41:43.894Z,83.95
2022-11-21T20:48:15.885Z,45.68
2022-11-21T20:54:39.769Z,33.73
2022-11-21T20:57:51.767Z,32.20
2022-11-21T21:01:04.224Z,25.10
2022-11-21T21:04:16.209Z,22.98
2022-11-21T21:07:28.251Z,25.13
2022-11-21T21:11:04.585Z,26.83
2022-11-21T21:13:55.309Z,28.50
2022-11-21T21:17:07.253Z,32.00
2022-11-21T21:20:20.054Z,32.38
2022-11-21T21:23:34.059Z,31.53
2022-11-21T21:26:48.359Z,30.93
2022-11-21T21:30:00.415Z,31.83
2022-11-21T21:33:12.228Z,35.10
2022-11-21T21:36:26.472Z,32.70
2022-11-21T21:39:38.288Z,31.70
2022-11-21T21:42:50.069Z,32.80
2022-11-21T21:46:01.933Z,31.55
2022-11-21T21:49:13.713Z,29.95
2022-11-21T21:52:25.578Z,33.88
2022-11-21T21:55:37.462Z,40.73
2022-11-21T21:58:52.063Z,40.25
2022-11-21T22:02:04.346Z,38.55
2022-11-21T22:05:17.661Z,33.58
2022-11-21T22:08:29.659Z,31.55
2022-11-21T22:11:44.128Z,33.95
2022-11-21T22:14:55.922Z,34.45
2022-11-21T22:18:07.930Z,32.88
2022-11-21T22:21:25.467Z,37.25
2022-11-21T22:24:39.268Z,35.85
2022-11-21T22:27:51.601Z,37.63
2022-11-21T22:31:04.612Z,45.80
2022-11-21T22:34:18.024Z,39.48
2022-11-21T22:37:29.883Z,39.50
2022-11-21T22:40:42.966Z,34.88
2022-11-21T22:43:58.921Z,37.08
2022-11-21T22:47:10.781Z,36.23
2022-11-21T22:50:24.472Z,37.48
2022-11-21T22:53:40.193Z,49.95
2022-11-21T22:56:53.447Z,36.10
2022-11-21T23:00:07.118Z,30.55
2022-11-21T23:03:19.339Z,34.30
2022-11-21T23:06:32.508Z,33.03
2022-11-21T23:09:44.202Z,32.88
2022-11-21T23:12:55.884Z,33.45
2022-11-21T23:16:08.533Z,29.18
2022-11-21T23:19:20.236Z,30.45
2022-11-21T23:22:32.018Z,32.35
2022-11-21T23:25:43.807Z,30.43
2022-11-21T23:28:55.564Z,34.68
2022-11-21T23:32:07.639Z,31.20
2022-11-21T23:35:19.600Z,27.98
2022-11-21T23:38:31.254Z,31.05
2022-11-21T23:41:43.365Z,31.85
2022-11-21T23:44:55.005Z,31.23
2022-11-21T23:48:06.721Z,30.40
2022-11-21T23:51:18.447Z,35.63
2022-11-21T23:54:30.099Z,30.65
2022-11-21T23:57:41.837Z,36.60
